createdAt,value
2023-02-09T00:03:36.392Z,7.80
2023-02-09T00:08:38.783Z,6.97
2023-02-09T00:13:44.221Z,7.55
2023-02-09T00:18:48.487Z,8.82
2023-02-09T00:23:51.981Z,9.45
2023-02-09T00:28:54.844Z,8.98
2023-02-09T00:33:58.233Z,7.80
2023-02-09T00:39:03.198Z,7.47
2023-02-09T00:44:06.229Z,7.43
2023-02-09T00:49:09.354Z,7.72
2023-02-09T00:54:13.153Z,7.47
2023-02-09T00:59:16.329Z,7.15
2023-02-09T01:04:21.007Z,7.32
2023-02-09T01:09:24.583Z,7.85
2023-02-09T01:14:28.915Z,7.45
2023-02-09T01:19:35.469Z,7.18
2023-02-09T01:24:41.272Z,7.80
2023-02-09T01:29:43.867Z,7.82
2023-02-09T01:34:46.547Z,7.13
2023-02-09T01:39:49.461Z,7.88
2023-02-09T01:45:06.669Z,7.63
2023-02-09T01:50:10.653Z,7.00
2023-02-09T01:55:18.072Z,7.95
2023-02-09T02:00:22.393Z,7.78
2023-02-09T02:05:28.457Z,8.85
2023-02-09T02:10:31.735Z,8.90
2023-02-09T02:15:59.520Z,8.35
2023-02-09T02:21:26.428Z,8.43
2023-02-09T02:26:48.855Z,7.50
2023-02-09T02:32:03.424Z,7.95
2023-02-09T02:37:11.866Z,8.98
2023-02-09T02:42:42.396Z,8.10
2023-02-09T02:47:53.943Z,7.15
2023-02-09T02:52:59.489Z,8.05
2023-02-09T02:58:06.664Z,7.07
2023-02-09T03:03:14.314Z,8.38
2023-02-09T03:08:17.183Z,8.60
2023-02-09T03:13:47.066Z,8.57
2023-02-09T03:19:11.720Z,7.82
2023-02-09T03:24:52.058Z,8.10
2023-02-09T03:29:59.951Z,8.23
2023-02-09T03:40:05.782Z,7.68
2023-02-09T03:45:10.647Z,8.23
2023-02-09T03:50:13.539Z,9.45
2023-02-09T03:55:16.634Z,8.35
2023-02-09T04:00:19.735Z,8.35
2023-02-09T04:05:23.776Z,8.88
2023-02-09T04:10:26.379Z,8.27
2023-02-09T04:15:29.184Z,8.55
2023-02-09T04:20:32.084Z,8.93
2023-02-09T04:25:34.452Z,7.90
2023-02-09T04:30:37.117Z,8.88
2023-02-09T04:35:39.496Z,9.13
2023-02-09T04:40:43.230Z,13.00
2023-02-09T04:45:46.809Z,9.20
2023-02-09T04:50:49.882Z,10.38
2023-02-09T04:55:53.969Z,9.38
2023-02-09T05:00:57.187Z,8.57
2023-02-09T05:06:05.306Z,11.20
2023-02-09T05:11:08.193Z,9.38
2023-02-09T05:16:16.357Z,10.20
2023-02-09T05:21:26.792Z,9.93
2023-02-09T05:26:31.542Z,9.25
2023-02-09T05:31:37.385Z,11.32
2023-02-09T05:36:41.465Z,10.30
2023-02-09T05:42:03.122Z,12.13
2023-02-09T05:47:09.550Z,10.70
2023-02-09T05:52:13.079Z,12.35
2023-02-09T05:57:17.459Z,11.57
2023-02-09T06:02:20.429Z,10.25
2023-02-09T06:07:23.859Z,12.15
2023-02-09T06:12:26.810Z,11.23
2023-02-09T06:17:32.757Z,11.43
2023-02-09T06:22:35.150Z,10.77
2023-02-09T06:27:38.729Z,11.35
2023-02-09T06:32:41.764Z,11.38
2023-02-09T06:37:44.158Z,11.90
2023-02-09T06:42:47.498Z,10.93
2023-02-09T06:47:50.036Z,13.18
2023-02-09T06:52:54.510Z,12.82
2023-02-09T06:57:58.700Z,12.25
2023-02-09T07:03:08.169Z,12.18
2023-02-09T07:08:15.116Z,12.13
2023-02-09T07:13:17.733Z,12.55
2023-02-09T07:18:22.714Z,12.18
2023-02-09T07:24:11.371Z,13.23
2023-02-09T07:29:17.511Z,13.43
2023-02-09T07:34:28.369Z,12.93
2023-02-09T07:39:32.332Z,12.80
2023-02-09T07:44:35.884Z,13.75
2023-02-09T07:49:39.375Z,12.93
2023-02-09T07:54:51.990Z,14.63
2023-02-09T08:00:00.870Z,15.77
2023-02-09T08:05:37.930Z,13.82
2023-02-09T08:10:42.629Z,16.05
2023-02-09T08:15:50.372Z,15.20
2023-02-09T08:20:55.039Z,17.83
2023-02-09T08:26:03.038Z,14.63
2023-02-09T08:31:06.683Z,15.98
2023-02-09T08:36:11.195Z,14.27
2023-02-09T08:41:16.977Z,13.15
2023-02-09T08:46:20.105Z,12.95
2023-02-09T08:51:27.238Z,12.15
2023-02-09T08:56:29.839Z,10.52
2023-02-09T09:01:41.567Z,10.50
2023-02-09T09:06:49.076Z,9.68
2023-02-09T09:11:52.966Z,10.52
2023-02-09T09:17:00.945Z,9.00
2023-02-09T09:22:05.853Z,9.75
2023-02-09T09:27:11.196Z,11.32
2023-02-09T09:32:14.679Z,13.75
2023-02-09T09:37:19.045Z,10.43
2023-02-09T09:42:41.669Z,10.65
2023-02-09T09:48:49.412Z,9.73
2023-02-09T09:54:23.333Z,9.82
2023-02-09T09:59:35.860Z,9.40
2023-02-09T10:04:39.005Z,9.90
2023-02-09T10:10:12.289Z,9.13
2023-02-09T10:15:31.011Z,10.00
2023-02-09T10:20:48.618Z,8.88
2023-02-09T10:26:10.038Z,9.15
2023-02-09T10:31:32.293Z,8.98
2023-02-09T10:37:05.651Z,8.20
2023-02-09T10:42:55.228Z,8.43
2023-02-09T10:48:03.211Z,7.85
2023-02-09T10:53:35.739Z,7.55
2023-02-09T10:58:39.067Z,8.98
2023-02-09T11:04:19.675Z,9.13
2023-02-09T11:09:31.947Z,9.07
2023-02-09T11:14:36.971Z,9.43
2023-02-09T11:20:09.678Z,9.38
2023-02-09T11:25:30.838Z,8.25
2023-02-09T11:30:56.317Z,9.95
2023-02-09T11:36:22.193Z,9.25
2023-02-09T11:42:12.195Z,9.40
2023-02-09T11:47:23.170Z,7.93
2023-02-09T11:52:41.219Z,8.77
2023-02-09T11:57:51.712Z,9.15
2023-02-09T12:03:12.061Z,10.07
2023-02-09T12:08:35.313Z,12.32
2023-02-09T12:14:08.610Z,10.35
2023-02-09T12:19:34.267Z,10.07
2023-02-09T12:24:40.990Z,10.57
2023-02-09T12:29:44.901Z,11.15
2023-02-09T12:34:56.432Z,11.30
2023-02-09T12:40:05.888Z,9.82
2023-02-09T12:45:40.944Z,9.68
2023-02-09T12:50:44.259Z,11.70
2023-02-09T12:56:10.314Z,8.02
2023-02-09T13:01:15.379Z,6.85
2023-02-09T13:06:36.461Z,6.43
2023-02-09T13:11:51.804Z,7.95
2023-02-09T13:17:22.613Z,7.10
2023-02-09T13:23:00.528Z,6.72
2023-02-09T13:28:25.049Z,6.15
2023-02-09T13:33:48.324Z,7.28
2023-02-09T13:38:51.953Z,6.35
2023-02-09T13:43:54.649Z,7.03
2023-02-09T13:49:11.670Z,7.65
2023-02-09T13:54:20.304Z,8.60
2023-02-09T13:59:23.547Z,6.57
2023-02-09T14:04:34.374Z,7.75
2023-02-09T14:10:02.119Z,6.40
2023-02-09T14:15:24.703Z,7.47
2023-02-09T14:20:27.805Z,7.30
2023-02-09T14:25:31.708Z,7.45
2023-02-09T14:30:38.326Z,7.57
2023-02-09T14:35:42.411Z,7.55
2023-02-09T14:40:45.371Z,7.70
2023-02-09T14:45:58.340Z,7.60
2023-02-09T14:51:11.012Z,7.85
2023-02-09T14:56:32.113Z,8.38
2023-02-09T15:01:35.206Z,8.30
2023-02-09T15:06:40.961Z,8.20
2023-02-09T15:12:03.698Z,9.18
2023-02-09T15:17:28.400Z,8.07
2023-02-09T15:22:31.564Z,7.60
2023-02-09T15:27:36.772Z,7.68
2023-02-09T15:32:39.129Z,7.72
2023-02-09T15:37:45.912Z,7.53
2023-02-09T15:48:10.171Z,6.68
2023-02-09T15:53:15.866Z,7.88
2023-02-09T15:58:28.188Z,7.70
2023-02-09T16:03:34.188Z,9.00
2023-02-09T16:08:38.698Z,8.20
2023-02-09T16:13:41.410Z,8.25
2023-02-09T16:18:46.443Z,7.20
2023-02-09T16:23:50.520Z,7.38
2023-02-09T16:28:53.706Z,6.55
2023-02-09T16:33:56.186Z,6.47
2023-02-09T16:39:00.226Z,6.07
2023-02-09T16:44:33.453Z,7.15
2023-02-09T16:49:43.288Z,7.05
2023-02-09T16:54:51.165Z,6.78
2023-02-09T16:59:54.769Z,7.22
2023-02-09T17:04:58.227Z,6.63
2023-02-09T17:10:02.813Z,7.55
2023-02-09T17:15:06.317Z,7.68
2023-02-09T17:20:16.114Z,8.02
2023-02-09T17:25:20.772Z,7.15
2023-02-09T17:30:23.480Z,7.32
2023-02-09T17:35:53.080Z,6.88
2023-02-09T17:40:50.886Z,6.88
2023-02-09T17:45:54.753Z,7.47
2023-02-09T17:51:00.353Z,7.40
2023-02-09T17:56:03.787Z,7.43
2023-02-09T18:01:25.291Z,6.90
2023-02-09T18:06:40.006Z,6.90
2023-02-09T18:11:45.436Z,6.72
2023-02-09T18:16:48.429Z,7.40
2023-02-09T18:21:56.842Z,6.93
2023-02-09T18:26:59.768Z,6.97
2023-02-09T18:32:03.126Z,7.88
2023-02-09T18:37:07.150Z,7.13
2023-02-09T18:42:28.112Z,7.55
2023-02-09T18:47:33.060Z,7.18
2023-02-09T18:52:43.442Z,9.20
2023-02-09T18:57:46.428Z,9.75
2023-02-09T19:02:49.259Z,10.43
2023-02-09T19:07:52.124Z,10.32
2023-02-09T19:12:55.751Z,10.90
2023-02-09T19:17:58.473Z,9.52
2023-02-09T19:23:02.728Z,9.45
2023-02-09T19:28:05.515Z,8.63
2023-02-09T19:33:08.236Z,8.90
2023-02-09T19:38:10.872Z,9.40
2023-02-09T19:43:13.696Z,9.43
2023-02-09T19:48:16.161Z,9.98
2023-02-09T19:53:21.592Z,11.55
2023-02-09T19:58:24.542Z,11.05
2023-02-09T20:03:27.117Z,10.10
2023-02-09T20:08:30.028Z,10.55
2023-02-09T20:13:32.567Z,10.32
2023-02-09T20:18:35.644Z,11.43
2023-02-09T20:23:38.941Z,10.88
2023-02-09T20:28:42.606Z,10.88
2023-02-09T20:33:45.613Z,10.95
2023-02-09T20:38:48.201Z,10.70
2023-02-09T20:44:09.783Z,10.18
2023-02-09T20:49:15.636Z,10.40
2023-02-09T20:54:18.031Z,10.60
2023-02-09T20:59:20.542Z,11.30
2023-02-09T21:04:23.562Z,10.35
2023-02-09T21:09:29.047Z,10.52
2023-02-09T21:14:43.188Z,10.15
2023-02-09T21:19:47.339Z,11.57
2023-02-09T21:24:50.161Z,11.30
2023-02-09T21:29:53.284Z,11.05
2023-02-09T21:34:56.666Z,10.52
2023-02-09T21:40:03.146Z,10.80
2023-02-09T21:45:07.953Z,11.07
2023-02-09T21:50:16.621Z,10.65
2023-02-09T21:55:19.008Z,10.65
2023-02-09T22:00:21.912Z,11.20
2023-02-09T22:05:25.556Z,11.30
2023-02-09T22:10:27.964Z,10.35
2023-02-09T22:15:30.863Z,9.73
2023-02-09T22:20:33.591Z,9.02
2023-02-09T22:25:36.531Z,10.32
2023-02-09T22:30:39.572Z,9.90
2023-02-09T22:35:44.161Z,10.20
2023-02-09T22:40:47.076Z,10.10
2023-02-09T22:45:56.928Z,9.48
2023-02-09T22:50:59.324Z,8.93
2023-02-09T22:56:04.383Z,9.73
2023-02-09T23:01:08.009Z,10.00
2023-02-09T23:06:14.822Z,9.43
2023-02-09T23:11:17.822Z,8.57
2023-02-09T23:16:26.632Z,9.23
2023-02-09T23:21:32.872Z,9.40
2023-02-09T23:26:37.275Z,9.15
2023-02-09T23:31:43.063Z,9.45
2023-02-09T23:36:47.784Z,9.43
2023-02-09T23:41:50.762Z,9.27
2023-02-09T23:46:53.270Z,8.40
2023-02-09T23:51:56.247Z,9.35
2023-02-09T23:56:58.650Z,8.68
